Time;durP1;ratioP1;P1;durP2;ratioP2;P2;SDS_P1;SDS_P2;PMS_P1;PMS_P2;Temp;Humidity;BMP_temperature;BMP_pressure;BME280_temperature;BME280_humidity;BME280_pressure;Samples;Min_cycle;Max_cycle;Signal;HPM_P1;HPM_P2
2023/04/16 00:00:47;;;;;;;8.32;2.63;;;;;;;7.70;100.00;102087.31;5087303;28;20063;-62
2023/04/16 00:03:13;;;;;;;7.90;2.75;;;;;;;7.70;100.00;102088.16;5085203;28;20731;-64
2023/04/16 00:05:38;;;;;;;6.68;2.60;;;;;;;7.73;100.00;102082.34;5087675;28;20024;-61
2023/04/16 00:08:03;;;;;;;8.27;2.67;;;;;;;7.73;100.00;102092.44;5085346;28;20062;-63
2023/04/16 00:10:29;;;;;;;8.20;2.70;;;;;;;7.74;100.00;102085.94;5085525;28;20028;-62
2023/04/16 00:12:54;;;;;;;8.00;2.53;;;;;;;7.74;100.00;102083.19;5087266;28;20024;-62
2023/04/16 00:15:19;;;;;;;8.85;3.17;;;;;;;7.75;100.00;102099.41;5086793;28;20032;-62
2023/04/16 00:17:45;;;;;;;6.82;2.40;;;;;;;7.75;100.00;102095.84;5064755;28;20031;-62
2023/04/16 00:20:10;;;;;;;6.22;2.80;;;;;;;7.76;100.00;102087.47;5087712;28;20082;-63
2023/04/16 00:22:35;;;;;;;7.07;2.75;;;;;;;7.79;100.00;102081.63;5084536;28;20035;-63
2023/04/16 00:25:01;;;;;;;7.30;2.90;;;;;;;7.77;100.00;102094.63;5086561;28;20378;-62
2023/04/16 00:27:26;;;;;;;8.13;3.20;;;;;;;7.77;100.00;102083.69;5085943;28;20074;-62
2023/04/16 00:29:51;;;;;;;8.60;2.92;;;;;;;7.76;100.00;102087.47;5087351;28;20051;-63
2023/04/16 00:32:17;;;;;;;6.30;2.70;;;;;;;7.76;100.00;102082.00;5083939;28;20040;-62
2023/04/16 00:34:42;;;;;;;9.63;3.50;;;;;;;7.75;100.00;102084.88;5086396;28;20030;-64
2023/04/16 00:37:08;;;;;;;6.20;3.00;;;;;;;7.77;100.00;102096.53;5068904;28;20074;-63
2023/04/16 00:39:33;;;;;;;7.20;3.08;;;;;;;7.76;100.00;102090.19;5082437;28;20029;-63
2023/04/16 00:41:58;;;;;;;7.60;3.35;;;;;;;7.77;100.00;102086.44;5086124;28;20028;-63
2023/04/16 00:44:24;;;;;;;7.22;3.00;;;;;;;7.77;100.00;102086.44;5068477;28;20081;-63
2023/04/16 00:46:49;;;;;;;9.45;3.30;;;;;;;7.78;100.00;102088.13;5085203;28;20107;-62
2023/04/16 00:49:15;;;;;;;8.10;3.33;;;;;;;7.75;100.00;102083.00;5086348;28;20529;-63
2023/04/16 00:51:40;;;;;;;7.10;3.38;;;;;;;7.75;100.00;102083.00;5086320;28;20114;-63
2023/04/16 00:54:06;;;;;;;8.20;3.30;;;;;;;7.76;100.00;102084.72;5084548;28;20040;-62
2023/04/16 00:56:32;;;;;;;7.80;3.30;;;;;;;7.75;100.00;102083.00;5086476;28;20035;-63
2023/04/16 00:58:58;;;;;;;7.43;3.88;;;;;;;7.74;100.00;102078.56;5085662;28;20454;-63
2023/04/16 01:01:23;;;;;;;10.23;3.95;;;;;;;7.75;100.00;102079.41;5085886;28;20028;-63
2023/04/16 01:03:49;;;;;;;8.98;3.90;;;;;;;7.73;100.00;102076.03;5085693;28;20035;-63
2023/04/16 01:06:16;;;;;;;9.05;3.90;;;;;;;7.75;100.00;102074.81;5085008;28;20694;-63
2023/04/16 01:08:42;;;;;;;6.97;3.58;;;;;;;7.76;100.00;102082.00;5084782;28;20024;-64
2023/04/16 01:11:11;;;;;;;8.80;3.80;;;;;;;7.78;100.00;102076.34;5085774;28;20677;-63
2023/04/16 01:13:38;;;;;;;9.95;4.07;;;;;;;7.78;100.00;102082.66;5085156;28;20032;-63
2023/04/16 01:16:05;;;;;;;7.88;3.95;;;;;;;7.75;100.00;102074.81;5084834;28;20025;-63
2023/04/16 01:18:31;;;;;;;10.77;4.07;;;;;;;7.79;100.00;102078.03;5081254;28;20028;-63
2023/04/16 01:20:56;;;;;;;8.30;3.97;;;;;;;7.76;100.00;102071.06;5084792;28;20027;-63
2023/04/16 01:23:21;;;;;;;9.63;4.38;;;;;;;7.80;100.00;102069.63;5081724;28;20081;-63
2023/04/16 01:25:47;;;;;;;7.97;3.95;;;;;;;7.79;100.00;102078.88;5085040;28;20528;-62
2023/04/16 01:28:12;;;;;;;9.25;4.10;;;;;;;7.83;100.00;102079.38;5085108;28;20062;-65
2023/04/16 01:30:38;;;;;;;9.75;3.63;;;;;;;7.84;100.00;102077.50;5084942;28;20028;-62
2023/04/16 01:33:03;;;;;;;7.28;3.75;;;;;;;7.84;100.00;102080.22;5084646;28;20387;-62
2023/04/16 01:35:28;;;;;;;8.13;3.60;;;;;;;7.83;100.00;102081.25;5066116;28;20047;-62
2023/04/16 01:37:54;;;;;;;8.32;3.92;;;;;;;7.82;100.00;102079.56;5084615;28;20031;-62
2023/04/16 01:40:19;;;;;;;7.03;3.60;;;;;;;7.82;100.00;102088.63;5067028;28;20120;-62
2023/04/16 01:42:44;;;;;;;6.47;3.60;;;;;;;7.82;100.00;102080.41;5084063;28;20024;-62
2023/04/16 01:45:10;;;;;;;8.02;3.67;;;;;;;7.84;100.00;102082.97;5085496;28;20035;-62
2023/04/16 01:47:35;;;;;;;7.70;3.92;;;;;;;7.85;100.00;102082.75;5083859;28;20024;-62
2023/04/16 01:50:02;;;;;;;6.93;3.70;;;;;;;7.86;100.00;102086.38;5085731;28;20032;-62
2023/04/16 01:52:27;;;;;;;7.65;3.40;;;;;;;7.87;100.00;102079.88;5083662;28;20829;-62
2023/04/16 01:54:52;;;;;;;9.73;3.90;;;;;;;7.86;100.00;102083.66;5066668;28;20024;-62
2023/04/16 01:57:17;;;;;;;6.88;3.40;;;;;;;7.83;100.00;102079.38;5084261;28;20039;-62
2023/04/16 01:59:43;;;;;;;6.80;3.30;;;;;;;7.85;100.00;102096.44;5084799;28;20607;-62
2023/04/16 02:02:13;;;;;;;7.10;3.42;;;;;;;7.89;100.00;102089.59;5085352;28;20027;-62
2023/04/16 02:04:40;;;;;;;6.30;3.20;;;;;;;7.90;100.00;102090.44;5085610;28;20036;-62
2023/04/16 02:07:06;;;;;;;5.57;3.20;;;;;;;7.93;100.00;102088.19;5065978;28;20161;-62
2023/04/16 02:09:36;;;;;;;6.35;3.28;;;;;;;7.91;100.00;102092.16;5084094;28;20488;-62
2023/04/16 02:12:02;;;;;;;9.50;3.95;;;;;;;7.91;100.00;102089.41;5084324;28;20036;-63
2023/04/16 02:14:28;;;;;;;7.32;3.67;;;;;;;7.91;100.00;102086.69;5084341;28;20032;-62
2023/04/16 02:16:53;;;;;;;7.10;3.50;;;;;;;7.93;100.00;102093.66;5082846;28;20095;-62
2023/04/16 02:19:18;;;;;;;7.05;3.75;;;;;;;7.90;100.00;102090.44;5083689;28;20023;-62
2023/04/16 02:21:44;;;;;;;8.48;3.70;;;;;;;7.89;100.00;102083.25;5085400;28;20504;-62
2023/04/16 02:24:09;;;;;;;6.55;3.38;;;;;;;7.89;100.00;102086.00;5083413;28;20035;-63
2023/04/16 02:26:34;;;;;;;6.68;3.97;;;;;;;7.84;100.00;102085.69;5085043;28;20420;-62
2023/04/16 02:29:00;;;;;;;7.40;3.70;;;;;;;7.86;100.00;102075.44;5066971;28;20024;-62
2023/04/16 02:31:27;;;;;;;6.80;3.70;;;;;;;7.83;100.00;102082.09;5083967;28;20036;-62
2023/04/16 02:33:52;;;;;;;7.13;3.45;;;;;;;7.86;100.00;102083.66;5077275;28;20029;-62
2023/04/16 02:36:17;;;;;;;6.82;3.42;;;;;;;7.88;100.00;102085.16;5062746;28;20059;-62
2023/04/16 02:38:43;;;;;;;7.18;3.30;;;;;;;7.86;100.00;102087.22;5082809;28;20495;-63
2023/04/16 02:41:08;;;;;;;7.32;3.67;;;;;;;7.88;100.00;102090.63;5067496;28;20032;-62
2023/04/16 02:43:33;;;;;;;7.75;4.00;;;;;;;7.89;100.00;102086.00;5064177;28;20024;-62
2023/04/16 02:45:59;;;;;;;5.90;3.38;;;;;;;7.87;100.00;102086.19;5084869;28;20066;-62
2023/04/16 02:48:24;;;;;;;7.30;3.30;;;;;;;7.90;100.00;102087.69;5083048;28;20031;-63
2023/04/16 02:50:49;;;;;;;7.78;3.80;;;;;;;7.85;100.00;102090.13;5083998;28;20401;-62
2023/04/16 02:53:15;;;;;;;6.97;3.85;;;;;;;7.84;100.00;102097.47;5082257;28;20117;-63
2023/04/16 02:55:40;;;;;;;8.70;3.53;;;;;;;7.89;100.00;102091.47;5084071;28;20032;-62
2023/04/16 02:58:06;;;;;;;6.47;3.63;;;;;;;7.84;100.00;102100.22;5083755;28;20462;-63
2023/04/16 03:00:31;;;;;;;7.82;4.10;;;;;;;7.83;100.00;102100.41;5083578;28;20031;-62
2023/04/16 03:02:56;;;;;;;7.13;3.75;;;;;;;7.84;100.00;102096.63;5083373;28;20028;-62
2023/04/16 03:05:21;;;;;;;7.93;4.22;;;;;;;7.79;100.00;102095.28;5083418;28;20429;-62
2023/04/16 03:07:47;;;;;;;7.90;4.15;;;;;;;7.80;100.00;102099.72;5081905;28;20038;-62
2023/04/16 03:10:12;;;;;;;8.10;4.90;;;;;;;7.77;100.00;102105.56;5085623;28;20054;-64
2023/04/16 03:12:38;;;;;;;8.75;4.82;;;;;;;7.77;100.00;102102.84;5088588;28;20035;-62
2023/04/16 03:15:04;;;;;;;7.63;4.53;;;;;;;7.78;100.00;102107.28;5086389;28;20413;-62
2023/04/16 03:17:29;;;;;;;7.88;4.72;;;;;;;7.80;100.00;102107.91;5085710;28;20069;-62
2023/04/16 03:19:54;;;;;;;8.60;4.80;;;;;;;7.80;100.00;102107.06;5087728;28;20424;-62
2023/04/16 03:22:20;;;;;;;9.25;5.60;;;;;;;7.79;100.00;102113.59;5084858;28;20020;-63
2023/04/16 03:24:45;;;;;;;9.05;5.32;;;;;;;7.75;100.00;102113.09;5086656;28;20110;-62
2023/04/16 03:27:11;;;;;;;9.10;5.45;;;;;;;7.76;100.00;102114.81;5086618;28;20478;-62
2023/04/16 03:29:37;;;;;;;8.82;6.15;;;;;;;7.78;100.00;102118.22;5062302;28;20028;-62
2023/04/16 03:32:02;;;;;;;11.25;5.97;;;;;;;7.76;100.00;102109.34;5070025;28;20394;-62
2023/04/16 03:34:28;;;;;;;11.50;6.70;;;;;;;7.77;100.00;102116.50;5086487;28;20031;-63
2023/04/16 03:36:53;;;;;;;10.48;6.53;;;;;;;7.79;100.00;102116.31;5087119;28;20479;-62
2023/04/16 03:39:18;;;;;;;10.38;7.10;;;;;;;7.78;100.00;102110.00;5068052;28;20032;-62
2023/04/16 03:41:44;;;;;;;9.48;6.80;;;;;;;7.89;100.00;102113.34;5088229;28;20589;-63
2023/04/16 03:44:09;;;;;;;10.18;7.05;;;;;;;7.78;100.00;102118.22;5069120;28;20024;-62
2023/04/16 03:46:34;;;;;;;10.88;7.53;;;;;;;7.77;100.00;102107.47;5086994;28;20082;-62
2023/04/16 03:49:00;;;;;;;9.85;6.93;;;;;;;7.77;100.00;102105.56;5087637;28;20035;-62
2023/04/16 03:51:25;;;;;;;9.57;7.20;;;;;;;7.78;100.00;102106.41;5087135;28;20024;-62
2023/04/16 03:53:51;;;;;;;11.80;7.93;;;;;;;7.76;100.00;102111.22;5084557;28;20077;-62
2023/04/16 03:56:16;;;;;;;10.50;7.65;;;;;;;7.73;100.00;102115.16;5069027;28;20035;-62
2023/04/16 03:58:41;;;;;;;10.50;7.57;;;;;;;7.74;100.00;102114.13;5087401;28;21433;-62
2023/04/16 04:01:07;;;;;;;10.02;7.70;;;;;;;7.77;100.00;102113.78;5088180;28;20020;-62
2023/04/16 04:03:32;;;;;;;9.98;8.00;;;;;;;7.76;100.00;102112.09;5085514;28;20028;-62
2023/04/16 04:05:57;;;;;;;11.52;8.07;;;;;;;7.75;100.00;102113.09;5069014;28;20056;-62
2023/04/16 04:08:23;;;;;;;9.25;7.45;;;;;;;7.78;100.00;102117.38;5084976;28;20023;-62
2023/04/16 04:10:49;;;;;;;9.45;7.53;;;;;;;7.76;100.00;102119.44;5068051;28;20098;-62
2023/04/16 04:13:15;;;;;;;9.88;7.90;;;;;;;7.78;100.00;102115.47;5086986;28;20032;-62
2023/04/16 04:15:40;;;;;;;9.52;8.10;;;;;;;7.84;100.00;102113.91;5087259;28;20032;-62
2023/04/16 04:18:05;;;;;;;11.73;7.30;;;;;;;7.78;100.00;102120.09;5068832;28;20020;-62
2023/04/16 04:20:31;;;;;;;10.48;7.43;;;;;;;7.78;100.00;102123.69;5086853;28;20028;-62
2023/04/16 04:22:56;;;;;;;10.63;7.70;;;;;;;7.78;100.00;102118.22;5085329;28;20067;-62
2023/04/16 04:25:21;;;;;;;8.82;7.13;;;;;;;7.77;100.00;102111.03;5087131;28;20423;-62
2023/04/16 04:27:47;;;;;;;11.38;6.97;;;;;;;7.79;100.00;102121.78;5086105;28;20542;-62
2023/04/16 04:30:12;;;;;;;9.32;7.10;;;;;;;7.76;100.00;102122.16;5087018;28;20427;-64
2023/04/16 04:32:37;;;;;;;10.18;6.57;;;;;;;7.76;100.00;102130.38;5068684;28;20034;-62
2023/04/16 04:35:03;;;;;;;10.35;6.82;;;;;;;7.75;100.00;102129.50;5081516;28;20064;-62
2023/04/16 04:37:28;;;;;;;9.73;6.85;;;;;;;7.76;100.00;102131.22;5078592;28;20038;-62
2023/04/16 04:39:54;;;;;;;9.48;6.72;;;;;;;7.73;100.00;102122.53;5076706;28;20106;-62
2023/04/16 04:42:20;;;;;;;9.77;7.28;;;;;;;7.72;100.00;102132.63;5082682;28;20035;-62
2023/04/16 04:44:46;;;;;;;9.73;6.93;;;;;;;7.72;100.00;102134.50;5080153;28;20024;-62
2023/04/16 04:47:12;;;;;;;9.27;7.28;;;;;;;7.73;100.00;102141.66;5081662;28;20081;-62
2023/04/16 04:49:37;;;;;;;11.60;7.22;;;;;;;7.76;100.00;102138.59;5083346;28;20620;-62
2023/04/16 04:52:02;;;;;;;10.15;6.95;;;;;;;7.80;100.00;102142.63;5078960;28;20031;-62
2023/04/16 04:54:30;;;;;;;11.48;8.00;;;;;;;7.78;100.00;102150.19;5082933;28;20584;-62
2023/04/16 04:56:55;;;;;;;11.10;7.43;;;;;;;7.77;100.00;102138.38;5080620;28;20052;-62
2023/04/16 04:59:21;;;;;;;10.73;7.38;;;;;;;7.78;100.00;102148.28;5083720;28;20051;-62
2023/04/16 05:01:47;;;;;;;10.65;7.90;;;;;;;7.77;100.00;102149.34;5086121;28;20020;-62
2023/04/16 05:04:12;;;;;;;11.75;7.43;;;;;;;7.78;100.00;102151.03;5082632;28;20035;-64
2023/04/16 05:06:38;;;;;;;11.32;7.72;;;;;;;7.81;100.00;102147.09;5084266;28;20036;-62
2023/04/16 05:09:03;;;;;;;11.88;7.93;;;;;;;7.83;100.00;102146.91;5082310;28;20481;-62
2023/04/16 05:11:28;;;;;;;11.73;7.90;;;;;;;7.81;100.00;102144.34;5084730;28;20062;-63
2023/04/16 05:13:54;;;;;;;13.13;8.13;;;;;;;7.82;100.00;102151.53;5083698;28;20035;-62
2023/04/16 05:16:19;;;;;;;11.25;7.88;;;;;;;7.83;100.00;102147.75;5084945;28;20043;-62
2023/04/16 05:18:44;;;;;;;9.95;7.68;;;;;;;7.85;100.00;102139.34;5082073;28;20099;-63
2023/04/16 05:21:10;;;;;;;11.15;8.52;;;;;;;7.83;100.00;102152.38;5085376;28;20049;-62
2023/04/16 05:23:35;;;;;;;10.75;7.95;;;;;;;7.82;100.00;102157.00;5083316;28;20036;-62
2023/04/16 05:26:00;;;;;;;10.85;8.48;;;;;;;7.82;100.00;102162.47;5086490;28;20375;-62
2023/04/16 05:28:26;;;;;;;11.85;8.38;;;;;;;7.84;100.00;102162.28;5084662;28;20572;-63
2023/04/16 05:30:51;;;;;;;12.48;8.45;;;;;;;7.83;100.00;102158.69;5085312;28;20023;-63
2023/04/16 05:33:16;;;;;;;13.75;9.23;;;;;;;7.80;100.00;102151.69;5084825;28;20479;-62
2023/04/16 05:35:41;;;;;;;10.95;8.45;;;;;;;7.82;100.00;102169.81;5085873;28;20479;-63
2023/04/16 05:38:07;;;;;;;12.10;8.40;;;;;;;7.84;100.00;102165.00;5066394;28;20024;-62
2023/04/16 05:40:32;;;;;;;12.30;8.82;;;;;;;7.83;100.00;102164.16;5085588;28;20032;-62
2023/04/16 05:42:57;;;;;;;12.18;8.63;;;;;;;7.86;100.00;102168.44;5084980;28;20428;-63
2023/04/16 05:45:22;;;;;;;12.50;9.35;;;;;;;7.86;100.00;102176.66;5085929;28;20028;-62
2023/04/16 05:47:48;;;;;;;12.48;8.63;;;;;;;7.82;100.00;102176.16;5067838;28;20031;-63
2023/04/16 05:50:13;;;;;;;14.10;9.75;;;;;;;7.85;100.00;102180.38;5084262;28;20111;-64
2023/04/16 05:52:39;;;;;;;12.48;8.82;;;;;;;7.86;100.00;102177.50;5084889;28;20382;-64
2023/04/16 05:55:05;;;;;;;14.50;10.00;;;;;;;7.84;100.00;102179.53;5083990;28;20020;-63
2023/04/16 05:57:30;;;;;;;13.18;9.45;;;;;;;7.87;100.00;102181.06;5085035;28;20052;-62
2023/04/16 05:59:55;;;;;;;12.93;9.35;;;;;;;7.87;100.00;102181.94;5084929;28;20028;-63
2023/04/16 06:02:21;;;;;;;15.15;10.43;;;;;;;7.87;100.00;102192.88;5083812;28;20536;-64
2023/04/16 06:04:46;;;;;;;14.25;9.25;;;;;;;7.89;100.00;102188.06;5082673;28;20027;-62
2023/04/16 06:07:12;;;;;;;13.30;10.25;;;;;;;7.87;100.00;102189.28;5083991;28;20466;-62
2023/04/16 06:09:37;;;;;;;13.65;9.57;;;;;;;7.88;100.00;102190.97;5085097;28;20024;-61
2023/04/16 06:12:02;;;;;;;16.05;10.05;;;;;;;7.90;100.00;102194.38;5084620;28;20036;-61
2023/04/16 06:14:28;;;;;;;13.40;9.60;;;;;;;7.91;100.00;102190.63;5083341;28;20413;-61
2023/04/16 06:16:53;;;;;;;13.07;9.95;;;;;;;7.88;100.00;102194.56;5082807;28;20420;-62
2023/04/16 06:19:18;;;;;;;14.38;10.50;;;;;;;7.88;100.00;102191.81;5081181;28;20039;-62
2023/04/16 06:21:44;;;;;;;14.35;10.25;;;;;;;7.88;100.00;102189.09;5083519;28;20028;-62
2023/04/16 06:24:09;;;;;;;16.25;11.02;;;;;;;7.89;100.00;102195.41;5084964;28;20028;-62
2023/04/16 06:26:35;;;;;;;16.48;11.10;;;;;;;7.91;100.00;102194.22;5065425;28;20080;-62
2023/04/16 06:29:00;;;;;;;15.43;10.88;;;;;;;7.92;100.00;102195.06;5084110;28;20032;-63
2023/04/16 06:31:25;;;;;;;16.23;10.68;;;;;;;7.95;100.00;102197.41;5083570;28;20040;-62
2023/04/16 06:33:50;;;;;;;15.27;11.02;;;;;;;7.97;100.00;102201.69;5083967;28;20032;-62
2023/04/16 06:36:16;;;;;;;16.50;11.05;;;;;;;7.98;100.00;102197.91;5083924;28;20044;-62
2023/04/16 06:38:41;;;;;;;17.98;11.15;;;;;;;8.01;100.00;102204.94;5065311;28;20060;-62
2023/04/16 06:41:07;;;;;;;13.73;9.98;;;;;;;8.00;100.00;102208.69;5077081;28;20032;-62
2023/04/16 06:43:32;;;;;;;17.00;10.85;;;;;;;8.00;100.00;102206.78;5086391;28;20044;-62
2023/04/16 06:45:58;;;;;;;15.73;10.60;;;;;;;8.03;100.00;102213.78;5088472;28;20115;-62
2023/04/16 06:48:24;;;;;;;15.73;10.32;;;;;;;8.05;100.00;102214.47;5086289;28;20051;-62
2023/04/16 06:50:49;;;;;;;15.13;10.85;;;;;;;8.08;100.00;102222.31;5089013;28;20382;-62
2023/04/16 06:53:15;;;;;;;14.35;10.70;;;;;;;8.11;100.00;102218.34;5085432;28;20131;-62
2023/04/16 06:55:40;;;;;;;15.75;11.10;;;;;;;8.14;100.00;102227.06;5089640;28;20024;-62
2023/04/16 06:58:05;;;;;;;14.90;10.82;;;;;;;8.16;100.00;102230.47;5088671;28;20076;-62
2023/04/16 07:00:31;;;;;;;16.27;11.02;;;;;;;8.19;100.00;102223.78;5070401;28;20020;-63
2023/04/16 07:02:56;;;;;;;13.90;11.02;;;;;;;8.18;100.00;102233.88;5085801;28;20055;-63
2023/04/16 07:05:21;;;;;;;16.55;10.48;;;;;;;8.18;100.00;102231.16;5086044;28;20020;-62
2023/04/16 07:07:47;;;;;;;19.25;12.10;;;;;;;8.22;100.00;102239.84;5086442;28;20105;-63
2023/04/16 07:10:12;;;;;;;16.67;11.40;;;;;;;8.22;100.00;102229.75;5087917;28;20027;-64
2023/04/16 07:12:38;;;;;;;17.13;10.55;;;;;;;8.23;100.00;102238.81;5088506;28;20054;-62
2023/04/16 07:15:04;;;;;;;18.60;11.68;;;;;;;8.26;100.00;102242.06;5070847;28;20022;-63
2023/04/16 07:17:29;;;;;;;16.88;10.82;;;;;;;8.27;100.00;102241.00;5087064;28;20153;-62
2023/04/16 07:19:54;;;;;;;16.25;11.00;;;;;;;8.27;100.00;102242.91;5087814;28;20440;-63
2023/04/16 07:22:20;;;;;;;18.45;11.07;;;;;;;8.27;100.00;102245.63;5086604;28;20032;-63
2023/04/16 07:24:45;;;;;;;15.85;11.07;;;;;;;8.28;100.00;102252.81;5086954;28;20034;-62
2023/04/16 07:27:10;;;;;;;17.90;10.88;;;;;;;8.27;100.00;102251.97;5087507;28;20720;-62
2023/04/16 07:29:35;;;;;;;19.42;12.00;;;;;;;8.28;100.00;102247.34;5085626;28;20036;-62
2023/04/16 07:32:01;;;;;;;18.35;11.88;;;;;;;8.33;100.00;102250.38;5086159;28;20032;-63
2023/04/16 07:34:26;;;;;;;16.50;11.55;;;;;;;8.34;100.00;102257.56;5086252;28;20119;-62
2023/04/16 07:36:51;;;;;;;17.13;11.70;;;;;;;8.35;100.00;102252.94;5080984;28;20384;-62
2023/04/16 07:39:16;;;;;;;17.17;11.82;;;;;;;8.37;100.00;102259.97;5085314;28;20039;-63
2023/04/16 07:41:42;;;;;;;17.13;11.73;;;;;;;8.38;100.00;102256.19;5088321;28;20024;-63
2023/04/16 07:44:08;;;;;;;17.13;11.35;;;;;;;8.40;100.00;102262.31;5088297;28;20024;-63
2023/04/16 07:46:33;;;;;;;16.35;11.90;;;;;;;8.41;100.00;102266.75;5086952;28;20035;-63
2023/04/16 07:48:58;;;;;;;18.25;13.05;;;;;;;8.42;100.00;102271.22;5087185;28;20561;-62
2023/04/16 07:51:24;;;;;;;19.08;13.98;;;;;;;8.44;100.00;102271.88;5086935;28;20032;-63
2023/04/16 07:53:50;;;;;;;18.08;11.50;;;;;;;8.48;100.00;102273.22;5069345;28;20028;-63
2023/04/16 07:56:15;;;;;;;15.32;11.25;;;;;;;8.52;100.00;102280.06;5086072;28;20066;-63
2023/04/16 07:58:40;;;;;;;15.45;11.00;;;;;;;8.59;100.00;102280.16;5087691;28;20395;-63
2023/04/16 08:01:06;;;;;;;14.25;11.15;;;;;;;8.58;100.00;102282.06;5068430;28;20032;-62
2023/04/16 08:03:31;;;;;;;17.25;11.60;;;;;;;8.63;100.00;102284.25;5087469;28;20455;-62
2023/04/16 08:05:57;;;;;;;16.95;11.50;;;;;;;8.65;100.00;102279.44;5087271;28;20114;-62
2023/04/16 08:08:22;;;;;;;15.68;11.10;;;;;;;8.70;100.00;102287.09;5083480;28;20056;-63
2023/04/16 08:10:48;;;;;;;16.98;11.73;;;;;;;8.72;100.00;102288.63;5087129;28;20062;-62
2023/04/16 08:13:13;;;;;;;16.55;12.23;;;;;;;8.71;100.00;102284.16;5087027;28;20036;-63
2023/04/16 08:15:38;;;;;;;17.20;12.27;;;;;;;8.72;100.00;102291.38;5083532;28;20036;-62
2023/04/16 08:18:05;;;;;;;16.15;11.73;;;;;;;8.75;100.00;102296.47;5081684;28;20382;-63
2023/04/16 08:20:31;;;;;;;14.67;11.50;;;;;;;8.78;100.00;102301.59;5086064;28;20028;-63
2023/04/16 08:22:56;;;;;;;17.88;12.52;;;;;;;8.82;100.00;102299.34;5085441;28;20062;-63
2023/04/16 08:25:23;;;;;;;16.75;11.43;;;;;;;8.84;100.00;102306.34;5086726;28;20035;-63
2023/04/16 08:27:49;;;;;;;16.40;11.77;;;;;;;8.84;100.00;102300.00;5084570;28;20041;-63
2023/04/16 08:30:15;;;;;;;15.95;12.50;;;;;;;8.83;100.00;102315.59;5084310;28;20029;-62
2023/04/16 08:32:41;;;;;;;14.68;11.63;;;;;;;8.84;100.00;102306.34;5085821;28;20028;-63
2023/04/16 08:35:07;;;;;;;15.75;12.15;;;;;;;8.87;100.00;102309.72;5068961;28;20060;-63
2023/04/16 08:37:32;;;;;;;16.85;11.75;;;;;;;8.87;100.00;102305.13;5084926;28;20694;-63
2023/04/16 08:39:58;;;;;;;16.83;11.80;;;;;;;8.90;100.00;102303.91;5086396;28;20466;-63
2023/04/16 08:42:30;;;;;;;15.93;11.25;;;;;;;8.93;100.00;102306.28;5086437;28;20059;-63
2023/04/16 08:45:07;;;;;;;17.90;11.68;;;;;;;8.97;100.00;102310.31;5083783;28;20030;-63
2023/04/16 08:47:34;;;;;;;16.35;11.55;;;;;;;8.96;100.00;102311.38;5086184;28;20032;-63
2023/04/16 08:50:02;;;;;;;;;;;;;;;9.06;100.00;102318.28;5086459;28;20042;-63
2023/04/16 08:52:30;;;;;;;18.23;11.68;;;;;;;9.06;100.00;102315.56;5081597;28;19946;-63
2023/04/16 08:54:58;;;;;;;13.52;11.57;;;;;;;9.13;100.00;102323.91;5086452;28;20084;-63
2023/04/16 08:57:25;;;;;;;;;;;;;;;9.20;100.00;102327.59;5086112;28;20039;-63
2023/04/16 08:59:53;;;;;;;18.80;12.18;;;;;;;9.15;100.00;102327.31;5085354;28;20006;-62
2023/04/16 09:02:18;;;;;;;16.40;12.17;;;;;;;9.19;100.00;102325.91;5085197;28;20441;-63
2023/04/16 09:04:44;;;;;;;16.33;11.73;;;;;;;9.21;100.00;102329.31;5085244;28;20046;-63
2023/04/16 09:07:10;;;;;;;17.52;12.65;;;;;;;9.25;100.00;102327.91;5083504;28;20067;-63
2023/04/16 09:09:37;;;;;;;18.30;13.45;;;;;;;9.25;100.00;102330.66;5084867;28;20024;-63
2023/04/16 09:12:03;;;;;;;16.85;12.73;;;;;;;9.29;100.00;102334.72;5085944;28;20028;-62
2023/04/16 09:14:29;;;;;;;15.80;12.05;;;;;;;9.33;100.00;102332.47;5063070;28;20549;-62
2023/04/16 09:16:56;;;;;;;18.52;13.82;;;;;;;9.39;100.00;102334.47;5083416;28;20158;-63
2023/04/16 09:19:22;;;;;;;17.70;12.57;;;;;;;9.41;100.00;102340.59;5083329;28;20039;-62
2023/04/16 09:21:47;;;;;;;14.95;11.55;;;;;;;9.44;100.00;102333.91;5083954;28;20020;-63
2023/04/16 09:24:13;;;;;;;17.25;13.18;;;;;;;9.46;100.00;102343.63;5084996;28;20024;-63
2023/04/16 09:26:40;;;;;;;17.88;11.90;;;;;;;9.48;100.00;102351.66;5084970;28;20028;-63
2023/04/16 09:29:06;;;;;;;15.75;12.10;;;;;;;9.46;100.00;102348.28;5084336;28;20043;-62
2023/04/16 09:31:31;;;;;;;15.57;12.40;;;;;;;9.47;100.00;102347.22;5082470;28;20397;-63
2023/04/16 09:34:06;;;;;;;17.00;13.10;;;;;;;9.50;100.00;102353.19;5079843;28;20032;-63
2023/04/16 09:36:32;;;;;;;18.95;13.45;;;;;;;9.47;100.00;102356.31;5051639;28;20055;-62
2023/04/16 09:38:58;;;;;;;15.85;12.65;;;;;;;9.48;100.00;102355.28;5052559;28;20032;-63
2023/04/16 09:41:28;;;;;;;16.60;13.10;;;;;;;9.51;100.00;102357.63;5057588;28;20024;-63
2023/04/16 09:44:03;;;;;;;15.63;12.00;;;;;;;9.51;100.00;102363.13;5055109;28;20066;-63
2023/04/16 09:46:36;;;;;;;15.50;12.23;;;;;;;9.50;100.00;102366.06;5060871;28;20076;-62
2023/04/16 09:49:15;;;;;;;16.30;13.32;;;;;;;9.50;100.00;102366.06;5057303;28;20025;-62
2023/04/16 09:51:44;;;;;;;17.52;13.50;;;;;;;9.48;100.00;102368.13;5051107;28;20418;-63
2023/04/16 09:54:09;;;;;;;14.98;12.48;;;;;;;9.49;100.00;102367.94;5049997;28;20055;-62
2023/04/16 09:56:40;;;;;;;15.43;12.65;;;;;;;9.52;100.00;102367.56;5055481;28;20475;-63
2023/04/16 09:59:05;;;;;;;14.25;12.75;;;;;;;9.53;100.00;102369.28;5062359;28;20056;-62
2023/04/16 10:01:31;;;;;;;15.20;13.60;;;;;;;9.55;100.00;102369.09;5054197;28;20161;-63
2023/04/16 10:03:57;;;;;;;14.35;12.80;;;;;;;9.57;100.00;102373.34;5048779;28;20636;-63
2023/04/16 10:06:25;;;;;;;15.25;13.65;;;;;;;9.60;100.00;102372.13;5051328;28;20020;-63
2023/04/16 10:08:52;;;;;;;;;;;;;;;9.67;100.00;102378.56;5060451;28;20028;-63
2023/04/16 10:11:18;;;;;;;13.95;12.18;;;;;;;9.60;100.00;102378.47;5063143;28;20302;-62
2023/04/16 10:13:44;;;;;;;13.55;12.15;;;;;;;9.61;100.00;102371.94;5059074;28;20029;-63
2023/04/16 10:16:10;;;;;;;14.73;12.23;;;;;;;9.66;100.00;102371.38;5061746;28;20104;-63
2023/04/16 10:18:37;;;;;;;14.23;12.32;;;;;;;9.68;100.00;102368.44;5058667;28;20688;-62
2023/04/16 10:21:02;;;;;;;14.65;12.00;;;;;;;9.68;100.00;102379.41;5063136;28;20060;-62
2023/04/16 10:23:28;;;;;;;15.35;13.40;;;;;;;9.70;100.00;102380.09;5050022;28;20056;-63
2023/04/16 10:25:54;;;;;;;16.08;12.65;;;;;;;9.75;100.00;102374.88;5059085;28;20037;-63
2023/04/16 10:28:19;;;;;;;14.20;12.20;;;;;;;9.79;100.00;102377.06;5064393;28;20029;-62
2023/04/16 10:30:54;;;;;;;13.88;12.38;;;;;;;9.80;100.00;102377.94;5060993;28;20035;-62
2023/04/16 10:33:21;;;;;;;13.45;11.52;;;;;;;9.77;100.00;102384.63;5060746;28;20035;-62
2023/04/16 10:35:46;;;;;;;13.25;11.60;;;;;;;9.80;100.00;102377.94;5072468;28;20043;-63
2023/04/16 10:38:24;;;;;;;13.90;11.95;;;;;;;9.84;100.00;102391.09;5092090;28;20024;-63
2023/04/16 10:40:49;;;;;;;14.20;12.73;;;;;;;9.87;100.00;102390.69;5092485;28;20409;-62
2023/04/16 10:43:18;;;;;;;14.52;12.23;;;;;;;9.91;100.00;102382.09;5087214;28;20085;-62
2023/04/16 10:45:46;;;;;;;15.18;12.30;;;;;;;9.95;100.00;102388.91;5091282;28;20089;-63
2023/04/16 10:48:13;;;;;;;16.20;12.27;;;;;;;9.96;100.00;102387.88;5073918;28;20020;-63
2023/04/16 10:50:40;;;;;;;13.90;11.83;;;;;;;9.99;100.00;102393.00;5089428;28;20374;-63
2023/04/16 10:53:25;;;;;;;14.38;11.80;;;;;;;10.06;100.00;102388.44;5090274;28;20542;-62
2023/04/16 10:56:06;;;;;;;12.70;11.25;;;;;;;10.04;100.00;102390.53;5091145;28;20039;-63
2023/04/16 10:58:35;;;;;;;12.50;11.00;;;;;;;9.97;100.00;102384.91;5087598;28;20039;-63
2023/04/16 11:01:05;;;;;;;14.82;11.80;;;;;;;10.02;100.00;102389.84;5090745;28;20434;-63
2023/04/16 11:03:33;;;;;;;13.60;11.75;;;;;;;10.04;100.00;102385.03;5091222;28;20494;-63
2023/04/16 11:06:11;;;;;;;;;;;;;;;10.16;100.00;102383.50;5090633;28;20036;-62
2023/04/16 11:08:39;;;;;;;13.27;10.48;;;;;;;10.26;100.00;102380.50;5088122;28;19918;-63
2023/04/16 11:11:04;;;;;;;12.18;10.77;;;;;;;10.39;100.00;102387.03;5090875;28;20032;-62